Terminal Aerodrome Forecast
Issued by NWS

Home | Current Version | Previous Version | Text Only | Print | Product List | Glossary On
Versions: 1 2 3 4 5 6 7 8 9 10 11 12 13 14 15
938
FTUS46 KSEW 240813 AAA
TAFOLM
TAF AMD
KOLM 240813Z 2408/2506 23006KT P6SM BKN040
     FM241200 20007KT P6SM SCT028 SCT040
      TEMPO 2414/2418 BKN028 BKN040
     FM241800 23012KT P6SM SCT035 BKN050
     FM242100 26012KT P6SM SCT050
     FM250000 28006KT P6SM SCT090=

USA.gov is the U.S. government's official web portal to all federal, state and local government web resources and services.